Time;durP1;ratioP1;P1;durP2;ratioP2;P2;SDS_P1;SDS_P2;PMS_P1;PMS_P2;Temp;Humidity;BMP_temperature;BMP_pressure;BME280_temperature;BME280_humidity;BME280_pressure;Samples;Min_cycle;Max_cycle;Signal;HPM_P1;HPM_P2
2023/10/18 00:01:22;;;;;;;0.85;0.85;;;;;;;4.93;73.98;99976.41;5113967;28;20043;-69
2023/10/18 00:03:54;;;;;;;2.40;1.50;;;;;;;4.88;73.96;99962.78;5114586;28;20058;-71
2023/10/18 00:06:24;;;;;;;3.20;1.38;;;;;;;4.83;73.83;99968.53;5114675;28;20051;-69
2023/10/18 00:08:57;;;;;;;0.28;0.28;;;;;;;4.90;73.98;99967.88;5114615;28;20047;-69
2023/10/18 00:11:28;;;;;;;0.50;0.50;;;;;;;4.88;73.73;99957.72;5114878;28;20051;-71
2023/10/18 00:13:57;;;;;;;0.75;0.75;;;;;;;4.79;74.08;99954.97;5114698;28;20397;-69
2023/10/18 00:16:26;;;;;;;2.80;1.60;;;;;;;4.81;73.84;99955.84;5115095;28;20035;-71
2023/10/18 00:18:55;;;;;;;0.50;0.50;;;;;;;4.69;74.11;99947.94;5114776;28;20035;-71
2023/10/18 00:21:25;;;;;;;1.30;1.20;;;;;;;4.71;73.91;99948.84;5114711;28;20085;-71
2023/10/18 00:23:54;;;;;;;0.93;0.93;;;;;;;4.63;74.28;99945.25;5114503;28;20036;-70
2023/10/18 00:26:23;;;;;;;1.20;0.77;;;;;;;4.64;74.17;99946.97;5114567;28;20120;-69
2023/10/18 00:28:56;;;;;;;0.82;0.82;;;;;;;4.65;74.64;99944.47;5114830;28;20485;-71
2023/10/18 00:31:27;;;;;;;2.15;1.95;;;;;;;4.71;74.45;99943.78;5114625;28;20039;-71
2023/10/18 00:33:56;;;;;;;0.30;0.30;;;;;;;4.65;74.30;99943.63;5113048;28;20043;-71
2023/10/18 00:36:25;;;;;;;0.80;0.80;;;;;;;4.59;74.23;99933.34;5112998;28;20090;-70
2023/10/18 00:38:54;;;;;;;0.30;0.30;;;;;;;4.53;74.61;99938.25;5114421;28;20122;-69
2023/10/18 00:41:25;;;;;;;1.23;1.13;;;;;;;4.57;74.42;99932.44;5113291;28;20366;-70
2023/10/18 00:43:56;;;;;;;0.30;0.30;;;;;;;4.56;74.69;99933.25;5114166;28;20097;-71
2023/10/18 00:46:27;;;;;;;0.82;0.82;;;;;;;4.54;74.35;99934.88;5114036;28;20054;-70
2023/10/18 00:48:57;;;;;;;0.50;0.50;;;;;;;4.56;74.81;99938.31;5113997;28;20043;-71
2023/10/18 00:51:27;;;;;;;0.30;0.30;;;;;;;4.60;74.47;99930.88;5113209;28;20088;-71
2023/10/18 00:53:57;;;;;;;0.52;0.52;;;;;;;4.59;74.09;99928.28;5114073;28;20054;-71
2023/10/18 00:56:27;;;;;;;0.30;0.30;;;;;;;4.55;74.62;99931.56;5112853;28;20040;-70
2023/10/18 00:58:59;;;;;;;0.40;0.40;;;;;;;4.59;74.98;99923.22;5113170;28;20386;-71
2023/10/18 01:01:30;;;;;;;2.38;1.25;;;;;;;4.57;74.64;99924.88;5113362;28;20435;-72
2023/10/18 01:04:02;;;;;;;0.40;0.40;;;;;;;4.53;74.57;99918.88;5113107;28;20051;-69
2023/10/18 01:06:33;;;;;;;0.60;0.60;;;;;;;4.55;75.01;99919.78;5114225;28;20386;-71
2023/10/18 01:09:03;;;;;;;1.15;1.10;;;;;;;4.59;75.14;99913.13;5112359;28;20489;-70
2023/10/18 01:11:32;;;;;;;;;;;;;;;4.60;74.83;99912.31;5113356;28;20043;-69
2023/10/18 01:14:05;;;;;;;0.80;0.77;;;;;;;4.63;74.32;99912.41;5115823;28;19920;-72
2023/10/18 01:16:35;;;;;;;0.45;0.45;;;;;;;4.56;74.44;99913.91;5118300;28;20082;-71
2023/10/18 01:19:08;;;;;;;0.30;0.30;;;;;;;4.45;74.96;99910.22;5116729;28;20042;-69
2023/10/18 01:21:42;;;;;;;0.38;0.38;;;;;;;4.43;75.01;99911.00;5117923;28;20059;-71
2023/10/18 01:24:14;;;;;;;0.77;0.77;;;;;;;4.36;74.70;99899.88;5117961;28;20052;-69
2023/10/18 01:26:45;;;;;;;0.20;0.20;;;;;;;4.40;74.61;99896.63;5099949;28;20047;-69
2023/10/18 01:29:15;;;;;;;0.30;0.30;;;;;;;4.29;75.20;99903.06;5117931;28;20044;-69
2023/10/18 01:31:45;;;;;;;0.32;0.32;;;;;;;4.33;75.50;99901.47;5116954;28;20088;-69
2023/10/18 01:34:15;;;;;;;0.60;0.60;;;;;;;4.34;75.21;99893.94;5116568;28;20055;-69
2023/10/18 01:36:44;;;;;;;;;;;;;;;4.40;75.10;99891.56;5116667;28;20060;-72
2023/10/18 01:39:20;;;;;;;2.10;1.65;;;;;;;4.40;74.98;99896.63;5117684;28;20262;-70
2023/10/18 01:41:53;;;;;;;0.40;0.40;;;;;;;4.27;74.69;99903.81;5116655;28;20051;-69
2023/10/18 01:44:30;;;;;;;0.32;0.32;;;;;;;4.23;75.06;99896.97;5117483;27;20044;-71
2023/10/18 01:47:06;;;;;;;0.68;0.68;;;;;;;4.23;75.44;99904.53;5116230;28;20051;-69
2023/10/18 01:49:43;;;;;;;1.25;1.15;;;;;;;4.27;75.26;99903.81;5117539;28;20038;-70
2023/10/18 01:52:18;;;;;;;0.38;0.38;;;;;;;4.30;75.24;99898.84;5116573;28;20066;-69
2023/10/18 01:54:47;;;;;;;0.75;0.65;;;;;;;4.35;75.37;99902.34;5117678;28;20127;-70
2023/10/18 01:57:18;;;;;;;0.30;0.30;;;;;;;4.24;75.72;99889.44;5116348;28;20040;-71
2023/10/18 01:59:49;;;;;;;0.30;0.30;;;;;;;4.32;75.69;99892.19;5116278;28;20039;-70
2023/10/18 02:02:20;;;;;;;0.30;0.30;;;;;;;4.37;75.31;99896.53;5117129;28;20048;-69
2023/10/18 02:04:50;;;;;;;1.08;1.00;;;;;;;4.29;75.01;99892.09;5117411;28;20043;-69
2023/10/18 02:07:24;;;;;;;1.10;1.05;;;;;;;4.35;75.56;99889.72;5117020;28;20082;-69
2023/10/18 02:09:57;;;;;;;0.40;0.40;;;;;;;4.44;75.38;99892.53;5115450;28;20038;-70
2023/10/18 02:12:29;;;;;;;0.95;0.93;;;;;;;4.41;75.45;99889.91;5117226;28;20048;-70
2023/10/18 02:15:00;;;;;;;1.02;1.02;;;;;;;4.31;75.34;99890.47;5115705;28;20051;-70
2023/10/18 02:17:30;;;;;;;0.30;0.30;;;;;;;4.34;75.76;99885.50;5115951;28;20104;-70
2023/10/18 02:20:00;;;;;;;4.68;2.60;;;;;;;4.26;74.90;99882.75;5115551;28;20093;-70
2023/10/18 02:22:30;;;;;;;0.30;0.30;;;;;;;4.29;75.67;99882.00;5115604;28;20056;-71
2023/10/18 02:25:02;;;;;;;1.10;1.08;;;;;;;4.29;75.70;99875.28;5115562;28;20079;-71
2023/10/18 02:27:36;;;;;;;0.40;0.40;;;;;;;4.32;74.93;99874.50;5116715;27;20100;-69
2023/10/18 02:30:10;;;;;;;0.30;0.30;;;;;;;4.21;75.58;99878.38;5116826;28;20035;-69
2023/10/18 02:32:41;;;;;;;0.50;0.50;;;;;;;4.04;75.89;99886.34;5116543;28;20048;-68
2023/10/18 02:35:10;;;;;;;0.52;0.43;;;;;;;4.05;75.47;99877.94;5116579;28;20054;-68
2023/10/18 02:37:40;;;;;;;0.25;0.25;;;;;;;4.10;75.68;99884.81;5115354;28;20059;-69
2023/10/18 02:40:09;;;;;;;0.60;0.60;;;;;;;4.15;75.70;99880.75;5116992;28;20042;-70
2023/10/18 02:42:41;;;;;;;0.73;0.73;;;;;;;4.07;75.58;99881.41;5116340;28;20101;-69
2023/10/18 02:45:17;;;;;;;0.50;0.50;;;;;;;4.03;76.01;99879.56;5115384;28;20044;-70
2023/10/18 02:47:51;;;;;;;1.13;1.02;;;;;;;3.94;75.86;99878.47;5116342;28;20040;-68
2023/10/18 02:50:20;;;;;;;0.30;0.30;;;;;;;3.92;76.08;99882.63;5115051;28;20071;-70
2023/10/18 02:52:50;;;;;;;0.63;0.63;;;;;;;3.95;76.02;99883.56;5115039;28;20036;-69
2023/10/18 02:55:19;;;;;;;0.40;0.40;;;;;;;4.08;76.48;99882.22;5116680;28;20493;-69
2023/10/18 02:57:50;;;;;;;0.88;0.85;;;;;;;4.02;76.35;99882.94;5116065;28;20051;-70
2023/10/18 03:00:20;;;;;;;2.38;1.38;;;;;;;4.05;76.08;99875.41;5116332;28;20562;-69
2023/10/18 03:02:50;;;;;;;2.20;2.05;;;;;;;4.01;76.39;99886.25;5115784;28;20071;-69
2023/10/18 03:05:20;;;;;;;8.57;2.20;;;;;;;4.06;76.16;99897.34;5098159;28;20578;-69
2023/10/18 03:07:49;;;;;;;0.95;0.95;;;;;;;3.95;76.00;99896.19;5115012;28;20039;-69
2023/10/18 03:10:27;;;;;;;0.90;0.90;;;;;;;3.94;76.28;99881.84;5115714;27;20044;-68
2023/10/18 03:13:03;;;;;;;0.70;0.68;;;;;;;3.92;76.24;99885.13;5115720;28;20276;-69
2023/10/18 03:15:32;;;;;;;0.75;0.52;;;;;;;3.94;75.70;99880.97;5114839;28;20439;-68
2023/10/18 03:18:02;;;;;;;1.70;1.58;;;;;;;3.99;76.04;99877.78;5116125;28;20051;-68
2023/10/18 03:20:37;;;;;;;1.33;1.23;;;;;;;3.95;76.17;99876.00;5116273;28;20040;-70
2023/10/18 03:23:07;;;;;;;0.40;0.40;;;;;;;3.95;76.07;99881.06;5116035;28;20063;-68
2023/10/18 03:25:36;;;;;;;0.63;0.63;;;;;;;3.95;76.25;99878.53;5115769;27;20114;-69
2023/10/18 03:28:13;;;;;;;0.52;0.52;;;;;;;3.93;76.41;99872.59;5115718;28;20035;-70
2023/10/18 03:30:45;;;;;;;0.40;0.40;;;;;;;4.01;75.84;99878.69;5114113;28;20040;-70
2023/10/18 03:33:15;;;;;;;0.95;0.95;;;;;;;3.95;75.71;99870.94;5115357;28;20058;-70
2023/10/18 03:35:49;;;;;;;0.80;0.80;;;;;;;3.93;76.19;99882.69;5115067;28;20044;-70
2023/10/18 03:38:21;;;;;;;1.92;1.25;;;;;;;3.99;76.01;99877.78;5115541;28;20101;-70
2023/10/18 03:40:56;;;;;;;1.30;1.20;;;;;;;4.02;76.05;99867.78;5114522;28;20039;-70
2023/10/18 03:43:32;;;;;;;0.57;0.57;;;;;;;3.98;76.06;99871.00;5114255;28;20484;-70
2023/10/18 03:46:13;;;;;;;0.60;0.60;;;;;;;4.02;75.67;99870.31;5113942;28;20047;-70
2023/10/18 03:48:47;;;;;;;0.70;0.70;;;;;;;4.10;76.23;99868.00;5114098;28;20044;-70
2023/10/18 03:51:23;;;;;;;0.68;0.68;;;;;;;4.18;75.87;99865.66;5115213;28;20065;-70
2023/10/18 03:53:53;;;;;;;0.98;0.95;;;;;;;4.19;75.87;99869.91;5114909;28;20051;-70
2023/10/18 03:56:22;;;;;;;;;;;;;;;4.14;75.38;99866.41;5115220;28;20082;-70
2023/10/18 03:59:09;;;;;;;;;;;;;;;4.01;75.74;99855.97;5114040;28;19920;-70
2023/10/18 04:01:44;;;;;;;0.73;0.73;;;;;;;4.03;75.84;99858.56;5115101;28;19919;-71
2023/10/18 04:04:18;;;;;;;0.38;0.38;;;;;;;3.95;75.29;99860.84;5115068;28;20101;-70
2023/10/18 04:06:50;;;;;;;0.70;0.70;;;;;;;3.92;75.43;99852.31;5114648;28;20052;-71
2023/10/18 04:09:21;;;;;;;1.38;1.27;;;;;;;3.99;75.25;99852.53;5114990;28;20047;-71
2023/10/18 04:11:50;;;;;;;1.27;1.17;;;;;;;4.02;75.95;99852.63;5115376;28;20039;-71
2023/10/18 04:14:22;;;;;;;0.50;0.50;;;;;;;3.88;74.94;99843.81;5114625;28;20040;-70
2023/10/18 04:16:57;;;;;;;1.05;1.05;;;;;;;3.85;75.08;99841.19;5114694;28;20151;-70
2023/10/18 04:19:26;;;;;;;0.32;0.32;;;;;;;3.80;75.69;99835.16;5114495;28;20066;-71
2023/10/18 04:21:56;;;;;;;3.65;1.67;;;;;;;3.92;76.00;99839.69;5113563;28;20043;-71
2023/10/18 04:24:26;;;;;;;2.22;1.35;;;;;;;3.87;75.75;99842.09;5114340;28;20051;-71
2023/10/18 04:26:56;;;;;;;0.30;0.30;;;;;;;3.81;75.40;99841.94;5114538;28;20051;-71
2023/10/18 04:29:33;;;;;;;2.00;1.10;;;;;;;3.70;76.05;99843.28;5114421;28;20044;-71
2023/10/18 04:32:05;;;;;;;1.40;1.30;;;;;;;3.65;75.33;99854.91;5114439;28;20044;-70
2023/10/18 04:34:35;;;;;;;0.77;0.77;;;;;;;3.64;76.13;99858.25;5114319;28;20057;-70
2023/10/18 04:37:09;;;;;;;2.35;2.15;;;;;;;3.52;76.00;99857.03;5112889;28;20485;-70
2023/10/18 04:39:38;;;;;;;1.75;1.20;;;;;;;3.52;75.83;99849.47;5114776;28;20044;-71
2023/10/18 04:42:08;;;;;;;0.52;0.52;;;;;;;3.58;76.57;99853.00;5114413;28;20400;-70
2023/10/18 04:44:40;;;;;;;6.78;2.28;;;;;;;3.57;76.58;99851.31;5114493;28;20052;-71
2023/10/18 04:47:14;;;;;;;1.30;1.20;;;;;;;3.53;76.48;99859.59;5113859;28;20105;-70
2023/10/18 04:50:00;;;;;;;0.80;0.80;;;;;;;3.50;76.18;99857.00;5113896;28;20059;-71
2023/10/18 04:52:28;;;;;;;1.15;1.05;;;;;;;3.55;76.87;99863.00;5114114;28;20040;-71
2023/10/18 04:55:04;;;;;;;1.25;1.15;;;;;;;3.58;76.37;99863.09;5113926;28;20049;-70
2023/10/18 04:57:38;;;;;;;0.98;0.90;;;;;;;3.69;76.97;99864.31;5114240;28;20142;-70
2023/10/18 05:02:51;;;;;;;2.00;1.85;;;;;;;3.78;76.66;99864.56;5113870;28;20040;-71
2023/10/18 05:05:19;;;;;;;1.50;1.40;;;;;;;3.74;76.04;99860.22;5113976;28;20127;-70
2023/10/18 05:07:49;;;;;;;2.58;2.25;;;;;;;3.74;75.83;99855.16;5113948;28;20067;-70
2023/10/18 05:10:18;;;;;;;0.32;0.32;;;;;;;3.79;76.04;99853.63;5113794;28;20504;-68
2023/10/18 05:12:53;;;;;;;0.82;0.82;;;;;;;3.81;76.06;99857.09;5113823;28;20097;-68
2023/10/18 05:15:29;;;;;;;3.03;2.75;;;;;;;3.81;75.24;99866.31;5114133;28;20520;-68
2023/10/18 05:18:05;;;;;;;1.48;0.85;;;;;;;3.77;75.98;99864.50;5113694;28;20048;-68
2023/10/18 05:20:55;;;;;;;1.75;1.63;;;;;;;3.81;75.58;99873.88;5114088;28;20043;-71
2023/10/18 05:23:25;;;;;;;3.78;3.47;;;;;;;3.82;75.83;99868.88;5112965;28;20184;-68
2023/10/18 05:26:08;;;;;;;2.72;2.53;;;;;;;3.73;75.79;99867.75;5113993;28;20125;-69
2023/10/18 05:28:49;;;;;;;3.58;3.13;;;;;;;3.72;76.00;99874.47;5113827;28;20073;-68
2023/10/18 05:34:02;;;;;;;2.85;2.63;;;;;;;3.64;75.74;99867.50;5113625;28;20047;-70
2023/10/18 05:36:35;;;;;;;4.15;3.45;;;;;;;3.72;76.05;99871.94;5113378;28;20055;-70
2023/10/18 05:41:48;;;;;;;3.30;2.95;;;;;;;3.66;76.31;99870.91;5114220;28;20044;-69
2023/10/18 05:44:16;;;;;;;1.80;1.23;;;;;;;3.74;76.37;99875.34;5113869;28;20048;-70
2023/10/18 05:46:47;;;;;;;0.98;0.98;;;;;;;3.71;76.72;99880.34;5113802;28;20039;-70
2023/10/18 05:49:16;;;;;;;4.80;3.40;;;;;;;3.72;76.41;99882.03;5112821;28;20233;-70
2023/10/18 05:54:28;;;;;;;2.25;1.60;;;;;;;3.93;76.26;99886.88;5093480;28;20048;-70
2023/10/18 05:56:58;;;;;;;0.38;0.38;;;;;;;3.91;76.95;99886.81;5093369;28;20052;-70
2023/10/18 05:59:31;;;;;;;1.50;1.35;;;;;;;3.95;77.11;99886.09;5094665;28;20044;-70
2023/10/18 06:02:09;;;;;;;0.90;0.82;;;;;;;4.20;76.95;99892.69;5096842;28;20067;-70
2023/10/18 06:04:42;;;;;;;1.00;0.75;;;;;;;4.41;77.07;99895.81;5096996;28;20043;-69
2023/10/18 06:07:13;;;;;;;0.30;0.30;;;;;;;4.65;76.51;99893.06;5096690;28;20048;-69
2023/10/18 06:09:53;;;;;;;3.40;1.85;;;;;;;4.83;76.59;99893.53;5100258;28;20051;-69
2023/10/18 06:12:27;;;;;;;0.20;0.20;;;;;;;4.94;76.33;99884.56;5096354;28;20036;-71
2023/10/18 06:15:10;;;;;;;1.25;0.95;;;;;;;5.11;75.71;99890.88;5096438;28;20040;-69
2023/10/18 06:17:52;;;;;;;0.30;0.30;;;;;;;5.33;75.73;99882.97;5095113;28;20417;-70
2023/10/18 06:20:27;;;;;;;0.70;0.70;;;;;;;5.48;75.52;99891.72;5096385;28;20496;-69
2023/10/18 06:25:36;;;;;;;1.50;1.27;;;;;;;5.78;74.94;99890.72;5117047;28;20122;-69
2023/10/18 06:28:07;;;;;;;1.98;1.77;;;;;;;5.82;74.50;99891.66;5110262;28;20054;-69
2023/10/18 06:30:42;;;;;;;2.72;1.67;;;;;;;5.84;74.41;99892.53;5096193;28;20047;-70
2023/10/18 06:33:15;;;;;;;2.85;1.35;;;;;;;5.94;74.33;99890.28;5095029;28;20044;-70
2023/10/18 06:35:51;;;;;;;1.38;1.27;;;;;;;5.99;74.59;99892.91;5096953;28;20047;-70
2023/10/18 06:38:22;;;;;;;0.95;0.90;;;;;;;6.06;74.48;99889.69;5095802;28;20052;-72
2023/10/18 06:40:51;;;;;;;0.73;0.73;;;;;;;6.17;74.25;99885.66;5096324;28;20072;-71
2023/10/18 06:43:33;;;;;;;0.82;0.82;;;;;;;6.30;74.00;99890.16;5096252;28;20040;-69
2023/10/18 06:46:04;;;;;;;0.68;0.68;;;;;;;6.37;73.99;99891.13;5098227;28;20093;-69
2023/10/18 06:48:35;;;;;;;0.90;0.90;;;;;;;6.31;73.67;99896.94;5095839;28;20042;-69
2023/10/18 06:51:11;;;;;;;1.17;1.10;;;;;;;6.27;73.39;99889.25;5096293;28;20048;-68
2023/10/18 06:53:47;;;;;;;0.57;0.57;;;;;;;6.21;73.76;99884.94;5096039;28;20079;-69
2023/10/18 06:56:20;;;;;;;0.43;0.43;;;;;;;6.30;73.53;99886.78;5109091;28;20052;-69
2023/10/18 06:58:49;;;;;;;0.30;0.30;;;;;;;6.47;73.67;99896.41;5116347;28;20044;-70
2023/10/18 07:01:21;;;;;;;2.00;1.13;;;;;;;6.49;73.13;99897.31;5116561;28;20065;-70
2023/10/18 07:03:51;;;;;;;1.17;0.82;;;;;;;6.45;72.92;99890.47;5115784;28;20072;-69
2023/10/18 07:06:23;;;;;;;0.30;0.30;;;;;;;6.54;73.32;99890.63;5102478;28;20131;-70
2023/10/18 07:08:55;;;;;;;0.60;0.60;;;;;;;6.73;72.74;99890.16;5095655;28;20044;-69
2023/10/18 07:11:26;;;;;;;0.90;0.90;;;;;;;6.84;72.48;99889.50;5095006;28;20379;-69
2023/10/18 07:14:13;;;;;;;0.80;0.80;;;;;;;6.87;72.11;99881.91;5095720;28;20367;-69
2023/10/18 07:16:42;;;;;;;1.00;0.70;;;;;;;6.93;72.21;99887.09;5099329;28;20036;-70
2023/10/18 07:19:25;;;;;;;;;;;;;;;7.02;72.20;99894.84;5116604;28;20054;-69
2023/10/18 07:21:55;;;;;;;0.75;0.63;;;;;;;7.18;72.42;99901.88;5115516;28;19919;-69
2023/10/18 07:24:27;;;;;;;0.60;0.60;;;;;;;7.24;72.12;99892.72;5115552;28;20044;-68
2023/10/18 07:26:56;;;;;;;1.45;1.30;;;;;;;7.26;71.98;99890.19;5113238;28;20489;-70
2023/10/18 07:29:28;;;;;;;1.05;0.95;;;;;;;7.37;71.45;99875.97;5115192;28;20489;-70
2023/10/18 07:31:59;;;;;;;0.28;0.28;;;;;;;7.48;71.42;99882.06;5114992;28;20497;-69
2023/10/18 07:34:31;;;;;;;7.45;0.85;;;;;;;7.53;70.83;99877.06;5115417;28;20044;-70
2023/10/18 07:37:17;;;;;;;0.50;0.50;;;;;;;7.61;71.23;99876.31;5113902;28;20043;-69
2023/10/18 07:39:48;;;;;;;0.40;0.40;;;;;;;7.70;70.98;99871.34;5115161;28;20051;-69
2023/10/18 07:42:20;;;;;;;0.50;0.50;;;;;;;7.72;70.47;99864.63;5115141;28;20040;-70
2023/10/18 07:44:53;;;;;;;0.98;0.88;;;;;;;7.91;70.98;99864.03;5114368;28;20560;-69
2023/10/18 07:47:25;;;;;;;1.65;0.95;;;;;;;8.06;70.28;99865.94;5114939;28;20036;-70
2023/10/18 07:49:58;;;;;;;0.85;0.85;;;;;;;8.23;70.16;99866.13;5115567;28;20043;-70
2023/10/18 07:52:27;;;;;;;0.40;0.40;;;;;;;8.28;69.55;99869.59;5115417;28;20139;-70
2023/10/18 07:54:56;;;;;;;1.15;0.98;;;;;;;8.40;69.67;99864.63;5112962;27;20055;-69
2023/10/18 07:57:33;;;;;;;0.70;0.70;;;;;;;8.45;69.03;99873.16;5114754;28;20059;-70
2023/10/18 08:02:52;;;;;;;1.38;1.27;;;;;;;8.56;68.40;99861.44;5109407;28;20142;-70
2023/10/18 08:05:30;;;;;;;1.13;1.02;;;;;;;8.62;68.14;99861.47;5093068;28;20055;-69
2023/10/18 08:08:08;;;;;;;1.30;0.88;;;;;;;8.74;68.33;99853.97;5094688;28;20123;-70
2023/10/18 08:10:39;;;;;;;2.72;1.10;;;;;;;8.85;68.22;99857.47;5094555;28;20051;-70
2023/10/18 08:13:09;;;;;;;0.82;0.82;;;;;;;8.98;68.32;99861.81;5095242;28;20127;-69
2023/10/18 08:15:38;;;;;;;1.88;1.75;;;;;;;9.02;68.16;99862.72;5115013;28;20043;-70
2023/10/18 08:18:16;;;;;;;1.48;1.10;;;;;;;9.07;67.24;99850.88;5114391;28;20052;-69
2023/10/18 08:26:05;;;;;;;1.08;0.85;;;;;;;9.46;66.52;99846.03;5103504;28;20055;-71
2023/10/18 08:28:39;;;;;;;0.50;0.50;;;;;;;9.61;66.45;99850.38;5108604;28;20035;-71
2023/10/18 08:31:16;;;;;;;0.40;0.40;;;;;;;9.82;66.11;99845.41;5114419;28;20050;-71
2023/10/18 08:33:46;;;;;;;1.23;0.63;;;;;;;9.87;65.48;99846.28;5095806;28;20050;-71
2023/10/18 08:36:29;;;;;;;0.80;0.77;;;;;;;9.99;65.49;99844.63;5113094;28;20083;-70
2023/10/18 08:38:58;;;;;;;0.40;0.40;;;;;;;10.02;64.39;99844.66;5096604;28;20125;-70
2023/10/18 08:41:36;;;;;;;2.90;1.33;;;;;;;10.04;63.90;99837.84;5105025;28;20126;-70
2023/10/18 08:44:15;;;;;;;1.85;1.35;;;;;;;10.11;63.32;99841.28;5106993;28;20048;-70
2023/10/18 08:46:52;;;;;;;;;;;;;;;10.20;63.26;99833.69;5114862;28;20047;-70
2023/10/18 08:49:23;;;;;;;0.85;0.85;;;;;;;10.29;63.16;99838.84;5114320;28;19920;-70
2023/10/18 08:52:04;;;;;;;1.25;1.08;;;;;;;10.45;63.03;99827.81;5114505;28;20059;-70
2023/10/18 08:54:36;;;;;;;0.80;0.70;;;;;;;10.70;62.09;99826.97;5113008;28;20454;-70
2023/10/18 08:57:08;;;;;;;0.55;0.55;;;;;;;10.86;61.66;99832.13;5114637;28;20477;-70
2023/10/18 08:59:45;;;;;;;5.57;2.72;;;;;;;11.06;61.38;99825.31;5114237;28;20102;-71
2023/10/18 09:02:18;;;;;;;0.57;0.57;;;;;;;11.31;61.29;99832.09;5113943;28;20048;-69
2023/10/18 09:04:51;;;;;;;0.43;0.43;;;;;;;11.34;61.15;99832.09;5114685;28;20109;-70
2023/10/18 09:10:32;;;;;;;1.08;0.82;;;;;;;11.46;60.35;99821.84;5101239;28;20525;-69
2023/10/18 09:16:01;;;;;;;0.68;0.68;;;;;;;11.87;59.40;99824.31;5083296;28;20040;-70
2023/10/18 09:18:31;;;;;;;0.70;0.70;;;;;;;12.00;58.51;99815.72;5091924;28;20139;-71
2023/10/18 09:21:17;;;;;;;1.20;1.10;;;;;;;12.23;58.47;99807.94;5095967;28;20545;-70
2023/10/18 09:23:49;;;;;;;0.50;0.50;;;;;;;12.33;57.96;99805.34;5093734;28;20040;-70
2023/10/18 09:26:26;;;;;;;0.47;0.47;;;;;;;12.47;58.14;99807.81;5093505;28;20044;-70
2023/10/18 09:28:59;;;;;;;0.75;0.75;;;;;;;12.65;57.25;99793.16;5101460;28;20035;-68
2023/10/18 09:31:29;;;;;;;2.47;0.88;;;;;;;12.82;56.39;99790.47;5106736;28;20055;-70
2023/10/18 09:33:59;;;;;;;1.27;1.17;;;;;;;12.91;55.82;99789.56;5104340;28;20040;-70
2023/10/18 09:36:29;;;;;;;0.70;0.70;;;;;;;12.99;54.97;99785.22;5098948;28;20055;-69
2023/10/18 09:39:00;;;;;;;0.60;0.60;;;;;;;13.06;54.99;99790.28;5115985;28;20449;-70
2023/10/18 09:41:30;;;;;;;0.65;0.65;;;;;;;13.15;54.43;99792.78;5098222;28;20135;-70
2023/10/18 09:44:02;;;;;;;0.80;0.80;;;;;;;13.23;53.56;99782.44;5097236;28;20135;-70
2023/10/18 09:46:32;;;;;;;1.10;1.02;;;;;;;13.26;53.30;99790.97;5111233;28;20044;-70
2023/10/18 09:49:06;;;;;;;0.88;0.82;;;;;;;13.21;52.96;99790.16;5117693;28;20069;-70
2023/10/18 09:51:40;;;;;;;1.10;0.90;;;;;;;13.19;52.72;99794.47;5117281;28;20512;-71
2023/10/18 09:54:14;;;;;;;1.67;1.23;;;;;;;13.49;53.67;99789.88;5117244;28;20135;-71
2023/10/18 09:56:45;;;;;;;0.60;0.60;;;;;;;13.75;52.40;99785.31;5116207;28;20473;-70
2023/10/18 09:59:25;;;;;;;0.73;0.63;;;;;;;13.80;51.57;99783.50;5117278;28;20520;-69
2023/10/18 10:01:57;;;;;;;0.63;0.63;;;;;;;13.64;49.84;99780.31;5116098;28;20409;-71
2023/10/18 10:04:32;;;;;;;2.05;1.17;;;;;;;13.63;49.67;99773.47;5115934;28;20047;-71
2023/10/18 10:09:47;;;;;;;0.40;0.40;;;;;;;13.77;49.48;99771.56;5117559;28;20366;-70
2023/10/18 10:12:18;;;;;;;0.35;0.35;;;;;;;13.73;49.43;99756.25;5117267;28;20101;-68
2023/10/18 10:14:47;;;;;;;0.80;0.65;;;;;;;13.72;49.19;99755.41;5115514;28;20490;-72
2023/10/18 10:17:18;;;;;;;3.63;1.48;;;;;;;13.73;48.84;99754.53;5117158;28;20035;-74
2023/10/18 10:19:52;;;;;;;0.77;0.70;;;;;;;14.02;48.74;99738.75;5116120;28;20051;-72
2023/10/18 10:22:24;;;;;;;1.13;1.00;;;;;;;14.06;48.27;99753.22;5096791;28;20367;-72
2023/10/18 10:25:05;;;;;;;1.10;1.00;;;;;;;13.89;48.12;99753.47;5096699;28;20059;-71
2023/10/18 10:27:53;;;;;;;0.45;0.45;;;;;;;13.84;47.82;99746.72;5096546;28;20036;-71
2023/10/18 10:30:26;;;;;;;0.95;0.88;;;;;;;13.97;47.49;99748.25;5096218;28;20088;-70
2023/10/18 10:32:59;;;;;;;0.50;0.50;;;;;;;14.08;47.89;99741.25;5095878;28;20044;-72
2023/10/18 10:35:32;;;;;;;0.52;0.52;;;;;;;14.21;47.64;99737.63;5096380;28;20040;-71
2023/10/18 10:38:09;;;;;;;1.65;1.55;;;;;;;14.31;47.30;99734.09;5096032;28;20048;-71
2023/10/18 10:40:45;;;;;;;0.73;0.52;;;;;;;14.29;46.74;99728.09;5095823;28;20040;-68
2023/10/18 10:43:14;;;;;;;1.40;1.30;;;;;;;14.22;47.07;99723.94;5095287;28;20059;-71
2023/10/18 10:45:53;;;;;;;0.40;0.40;;;;;;;14.26;46.43;99720.44;5095200;28;20047;-71
2023/10/18 10:48:36;;;;;;;0.63;0.63;;;;;;;14.38;46.43;99722.84;5096255;28;20472;-68
2023/10/18 10:51:11;;;;;;;1.60;1.50;;;;;;;14.49;46.22;99715.81;5096058;28;20063;-72
2023/10/18 10:53:48;;;;;;;0.50;0.50;;;;;;;14.33;46.09;99705.81;5101133;28;20067;-71
2023/10/18 10:56:27;;;;;;;0.50;0.50;;;;;;;14.26;45.57;99715.31;5116497;28;20067;-72
2023/10/18 10:59:03;;;;;;;0.43;0.37;;;;;;;14.35;46.15;99698.97;5114599;28;20074;-72
2023/10/18 11:07:23;;;;;;;0.32;0.32;;;;;;;14.21;45.63;99694.00;5114704;28;20093;-74
2023/10/18 11:09:59;;;;;;;0.47;0.47;;;;;;;14.23;45.19;99689.69;5116177;28;20485;-72
2023/10/18 11:12:33;;;;;;;0.32;0.32;;;;;;;14.34;45.37;99681.84;5116162;28;20062;-72
2023/10/18 11:15:04;;;;;;;1.02;0.90;;;;;;;14.39;45.70;99673.22;5115671;28;20481;-69
2023/10/18 11:17:35;;;;;;;0.30;0.30;;;;;;;14.48;45.24;99678.19;5114534;28;20497;-71
2023/10/18 11:20:18;;;;;;;0.55;0.55;;;;;;;14.37;45.10;99667.22;5116609;28;20429;-72
2023/10/18 11:22:50;;;;;;;1.10;0.85;;;;;;;14.40;45.17;99680.03;5106883;28;20051;-69
2023/10/18 11:25:30;;;;;;;0.95;0.82;;;;;;;14.45;44.58;99669.69;5095304;28;20048;-69
2023/10/18 11:28:18;;;;;;;0.93;0.93;;;;;;;14.60;44.33;99670.28;5111526;28;20134;-72
2023/10/18 11:30:53;;;;;;;1.00;0.73;;;;;;;14.67;43.45;99671.88;5115731;28;20431;-72
2023/10/18 11:33:46;;;;;;;0.50;0.50;;;;;;;14.75;43.58;99664.88;5115642;28;20051;-70
2023/10/18 11:36:19;;;;;;;0.57;0.57;;;;;;;14.86;42.96;99653.53;5094624;28;20060;-71
2023/10/18 11:41:34;;;;;;;0.63;0.63;;;;;;;14.96;43.26;99642.22;5095144;28;20138;-73
2023/10/18 11:44:07;;;;;;;0.95;0.93;;;;;;;15.13;42.60;99635.88;5096235;28;20394;-71
2023/10/18 11:46:47;;;;;;;0.45;0.45;;;;;;;15.21;42.09;99631.41;5115554;27;20497;-71
2023/10/18 11:49:19;;;;;;;0.60;0.60;;;;;;;15.29;42.48;99636.41;5114025;28;20047;-72
2023/10/18 11:51:49;;;;;;;1.10;0.98;;;;;;;15.32;41.75;99628.63;5114957;28;20130;-72
2023/10/18 11:54:31;;;;;;;1.25;1.15;;;;;;;15.26;42.12;99632.16;5103731;28;20048;-72
2023/10/18 11:57:02;;;;;;;0.60;0.60;;;;;;;15.40;42.00;99619.03;5100567;28;20132;-72
2023/10/18 11:59:50;;;;;;;0.70;0.70;;;;;;;15.57;42.23;99614.41;5096271;28;20406;-72
2023/10/18 12:02:19;;;;;;;1.10;0.90;;;;;;;15.30;41.85;99620.13;5094231;28;20118;-69
2023/10/18 12:04:49;;;;;;;0.43;0.43;;;;;;;15.13;42.09;99622.19;5093675;28;20054;-72
2023/10/18 12:07:19;;;;;;;0.80;0.80;;;;;;;15.16;42.20;99614.41;5093377;28;20397;-71
2023/10/18 12:09:51;;;;;;;0.80;0.80;;;;;;;15.38;41.92;99611.34;5094294;28;20048;-71
2023/10/18 12:12:20;;;;;;;2.15;0.80;;;;;;;15.29;42.42;99605.53;5101723;28;20063;-72
2023/10/18 12:14:50;;;;;;;0.50;0.50;;;;;;;15.31;43.25;99603.78;5114680;28;20048;-70
2023/10/18 12:17:21;;;;;;;0.50;0.50;;;;;;;15.28;42.82;99606.44;5114884;28;20042;-74
2023/10/18 12:19:52;;;;;;;1.23;0.73;;;;;;;15.35;42.83;99597.72;5114935;28;20047;-72
2023/10/18 12:22:23;;;;;;;0.40;0.40;;;;;;;15.22;43.14;99598.84;5105866;28;20052;-73
2023/10/18 12:24:53;;;;;;;1.38;0.93;;;;;;;15.18;42.75;99597.22;5092982;28;20059;-74
2023/10/18 12:27:33;;;;;;;0.60;0.60;;;;;;;15.16;42.68;99578.41;5094666;28;20044;-72
2023/10/18 12:30:27;;;;;;;0.50;0.50;;;;;;;15.17;43.13;99587.81;5094311;28;20101;-70
2023/10/18 12:33:05;;;;;;;0.50;0.50;;;;;;;15.11;43.28;99585.38;5093235;28;20478;-72
2023/10/18 12:35:36;;;;;;;1.85;1.02;;;;;;;15.19;43.06;99570.63;5093942;28;20052;-73
2023/10/18 12:38:12;;;;;;;1.20;1.10;;;;;;;15.20;42.75;99570.59;5093782;28;20052;-74
2023/10/18 12:40:51;;;;;;;0.50;0.50;;;;;;;15.25;43.25;99565.34;5094460;28;20086;-72
2023/10/18 12:43:21;;;;;;;0.38;0.38;;;;;;;15.08;42.66;99567.44;5093505;28;20097;-73
2023/10/18 12:45:52;;;;;;;3.50;1.15;;;;;;;14.87;42.60;99555.03;5094253;28;20398;-70
2023/10/18 12:48:24;;;;;;;0.47;0.47;;;;;;;14.93;42.32;99549.75;5093976;28;20047;-75